sensor_id;sensor_type;location;lat;lon;timestamp;pressure;altitude;pressure_sealevel;temperature;humidity
12951;BME280;6540;50.858;7.232;2023-07-13T00:01:49;51535.81;;;-142.34;24.22
12951;BME280;6540;50.858;7.232;2023-07-13T00:04:21;51531.78;;;-142.34;24.31
12951;BME280;6540;50.858;7.232;2023-07-13T00:06:48;51541.88;;;-142.34;24.31
12951;BME280;6540;50.858;7.232;2023-07-13T00:09:15;51491.44;;;-142.34;24.29
12951;BME280;6540;50.858;7.232;2023-07-13T00:11:41;51543.88;;;-142.34;24.70
12951;BME280;6540;50.858;7.232;2023-07-13T00:14:08;51543.88;;;-142.34;24.29
12951;BME280;6540;50.858;7.232;2023-07-13T00:16:36;51541.88;;;-142.34;24.02
12951;BME280;6540;50.858;7.232;2023-07-13T00:19:01;51560.03;;;-142.34;24.44
12951;BME280;6540;50.858;7.232;2023-07-13T00:21:27;51556.00;;;-142.34;24.48
12951;BME280;6540;50.858;7.232;2023-07-13T00:23:52;51560.03;;;-142.34;24.40
12951;BME280;6540;50.858;7.232;2023-07-13T00:26:18;51531.78;;;-142.34;24.28
12951;BME280;6540;50.858;7.232;2023-07-13T00:28:43;51535.81;;;-142.34;24.77
12951;BME280;6540;50.858;7.232;2023-07-13T00:31:10;51531.78;;;-142.34;24.77
12951;BME280;6540;50.858;7.232;2023-07-13T00:33:36;51547.94;;;-142.34;24.66
12951;BME280;6540;50.858;7.232;2023-07-13T00:36:02;51529.78;;;-142.34;24.48
12951;BME280;6540;50.858;7.232;2023-07-13T00:38:27;51560.03;;;-142.34;25.06
12951;BME280;6540;50.858;7.232;2023-07-13T00:40:53;51558.00;;;-142.34;24.71
12951;BME280;6540;50.858;7.232;2023-07-13T00:43:21;51580.19;;;-142.34;24.56
12951;BME280;6540;50.858;7.232;2023-07-13T00:48:15;51553.97;;;-142.34;24.66
12951;BME280;6540;50.858;7.232;2023-07-13T00:50:43;51549.94;;;-142.34;24.93
12951;BME280;6540;50.858;7.232;2023-07-13T00:53:10;51539.84;;;-142.34;25.66
12951;BME280;6540;50.858;7.232;2023-07-13T00:55:36;51588.28;;;-142.34;26.01
12951;BME280;6540;50.858;7.232;2023-07-13T00:58:02;51586.25;;;-142.34;25.49
12951;BME280;6540;50.858;7.232;2023-07-13T01:00:29;51598.34;;;-142.34;25.69
12951;BME280;6540;50.858;7.232;2023-07-13T01:02:55;51572.13;;;-142.34;25.90
12951;BME280;6540;50.858;7.232;2023-07-13T01:05:22;51596.34;;;-142.34;26.25
12951;BME280;6540;50.858;7.232;2023-07-13T01:07:49;51604.41;;;-142.34;26.15
12951;BME280;6540;50.858;7.232;2023-07-13T01:10:17;51594.31;;;-142.34;25.51
12951;BME280;6540;50.858;7.232;2023-07-13T01:12:42;51566.09;;;-142.34;25.23
12951;BME280;6540;50.858;7.232;2023-07-13T01:15:38;51584.22;;;-142.34;25.32
12951;BME280;6540;50.858;7.232;2023-07-13T01:18:16;51616.50;;;-142.34;26.56
12951;BME280;6540;50.858;7.232;2023-07-13T01:20:56;51560.03;;;-142.34;25.62
12951;BME280;6540;50.858;7.232;2023-07-13T01:23:22;51584.22;;;-142.34;25.42
12951;BME280;6540;50.858;7.232;2023-07-13T01:25:49;51572.13;;;-142.34;25.44
12951;BME280;6540;50.858;7.232;2023-07-13T01:28:14;51612.47;;;-142.34;25.74
12951;BME280;6540;50.858;7.232;2023-07-13T01:30:42;51580.19;;;-142.34;25.91
12951;BME280;6540;50.858;7.232;2023-07-13T01:33:12;51596.34;;;-142.34;25.61
12951;BME280;6540;50.858;7.232;2023-07-13T01:35:37;51594.31;;;-142.34;25.70
12951;BME280;6540;50.858;7.232;2023-07-13T01:38:04;51614.50;;;-142.34;25.69
12951;BME280;6540;50.858;7.232;2023-07-13T01:40:30;51584.22;;;-142.34;25.36
12951;BME280;6540;50.858;7.232;2023-07-13T01:42:55;51584.22;;;-142.34;26.07
12951;BME280;6540;50.858;7.232;2023-07-13T01:45:21;51594.31;;;-142.34;25.82
12951;BME280;6540;50.858;7.232;2023-07-13T01:47:46;51580.19;;;-142.34;25.29
12951;BME280;6540;50.858;7.232;2023-07-13T01:50:12;51568.09;;;-142.34;25.44
12951;BME280;6540;50.858;7.232;2023-07-13T01:52:37;51580.19;;;-142.34;25.32
12951;BME280;6540;50.858;7.232;2023-07-13T01:55:03;51580.19;;;-142.34;25.17
12951;BME280;6540;50.858;7.232;2023-07-13T01:57:28;51596.34;;;-142.34;25.51
12951;BME280;6540;50.858;7.232;2023-07-13T01:59:54;51588.28;;;-142.34;25.63
12951;BME280;6540;50.858;7.232;2023-07-13T02:02:19;51598.34;;;-142.34;25.73
12951;BME280;6540;50.858;7.232;2023-07-13T02:04:45;51602.38;;;-142.34;25.63
12951;BME280;6540;50.858;7.232;2023-07-13T02:07:10;51628.63;;;-142.34;26.41
12951;BME280;6540;50.858;7.232;2023-07-13T02:09:35;51610.47;;;-142.34;26.17
12951;BME280;6540;50.858;7.232;2023-07-13T02:12:01;51596.34;;;-142.34;25.97
12951;BME280;6540;50.858;7.232;2023-07-13T02:14:26;51600.38;;;-142.34;26.61
12951;BME280;6540;50.858;7.232;2023-07-13T02:16:51;51660.88;;;-142.34;26.27
12951;BME280;6540;50.858;7.232;2023-07-13T02:19:17;51618.53;;;-142.34;26.78
12951;BME280;6540;50.858;7.232;2023-07-13T02:21:42;51614.50;;;-142.34;26.02
12951;BME280;6540;50.858;7.232;2023-07-13T02:24:08;51620.53;;;-142.34;25.90
12951;BME280;6540;50.858;7.232;2023-07-13T02:26:34;51624.56;;;-142.34;26.01
12951;BME280;6540;50.858;7.232;2023-07-13T02:28:59;51622.56;;;-142.34;26.43
12951;BME280;6540;50.858;7.232;2023-07-13T02:31:25;51600.38;;;-142.34;26.45
12951;BME280;6540;50.858;7.232;2023-07-13T02:33:50;51616.50;;;-142.34;26.38
12951;BME280;6540;50.858;7.232;2023-07-13T02:36:16;51622.56;;;-142.34;27.07
12951;BME280;6540;50.858;7.232;2023-07-13T02:38:41;51640.72;;;-142.34;26.88
12951;BME280;6540;50.858;7.232;2023-07-13T02:41:07;51640.72;;;-142.34;26.22
12951;BME280;6540;50.858;7.232;2023-07-13T02:43:34;51644.75;;;-142.34;26.22
12951;BME280;6540;50.858;7.232;2023-07-13T02:45:59;51590.28;;;-142.34;26.00
12951;BME280;6540;50.858;7.232;2023-07-13T02:48:29;51596.34;;;-142.34;25.95
12951;BME280;6540;50.858;7.232;2023-07-13T02:50:55;51596.34;;;-142.34;26.73
12951;BME280;6540;50.858;7.232;2023-07-13T02:53:20;51644.75;;;-142.34;26.48
12951;BME280;6540;50.858;7.232;2023-07-13T02:55:48;51640.72;;;-142.34;26.90
12951;BME280;6540;50.858;7.232;2023-07-13T02:58:13;51622.56;;;-142.34;26.40
12951;BME280;6540;50.858;7.232;2023-07-13T03:00:42;51608.44;;;-142.34;26.20
12951;BME280;6540;50.858;7.232;2023-07-13T03:03:08;51604.41;;;-142.34;25.97
12951;BME280;6540;50.858;7.232;2023-07-13T03:05:33;51642.72;;;-142.34;26.23
12951;BME280;6540;50.858;7.232;2023-07-13T03:07:59;51636.69;;;-142.34;26.18
12951;BME280;6540;50.858;7.232;2023-07-13T03:10:24;51658.88;;;-142.34;26.51
12951;BME280;6540;50.858;7.232;2023-07-13T03:12:50;51596.34;;;-142.34;26.49
12951;BME280;6540;50.858;7.232;2023-07-13T03:15:15;51636.69;;;-142.34;26.54
12951;BME280;6540;50.858;7.232;2023-07-13T03:17:41;51612.47;;;-142.34;25.82
12951;BME280;6540;50.858;7.232;2023-07-13T03:20:07;51592.31;;;-142.34;25.65
12951;BME280;6540;50.858;7.232;2023-07-13T03:22:32;51594.31;;;-142.34;25.76
12951;BME280;6540;50.858;7.232;2023-07-13T03:24:58;51584.22;;;-142.34;25.95
12951;BME280;6540;50.858;7.232;2023-07-13T03:27:23;51624.56;;;-142.34;26.12
12951;BME280;6540;50.858;7.232;2023-07-13T03:29:48;51610.47;;;-142.34;26.23
12951;BME280;6540;50.858;7.232;2023-07-13T03:32:14;51634.66;;;-142.34;27.07
12951;BME280;6540;50.858;7.232;2023-07-13T03:34:39;51656.84;;;-142.34;27.35
12951;BME280;6540;50.858;7.232;2023-07-13T03:37:05;51640.72;;;-142.34;27.19
12951;BME280;6540;50.858;7.232;2023-07-13T03:39:30;51636.69;;;-142.34;27.15
12951;BME280;6540;50.858;7.232;2023-07-13T03:41:55;51636.69;;;-142.34;27.26
12951;BME280;6540;50.858;7.232;2023-07-13T03:44:21;51664.91;;;-142.34;27.66
12951;BME280;6540;50.858;7.232;2023-07-13T03:46:46;51685.09;;;-142.34;27.49
12951;BME280;6540;50.858;7.232;2023-07-13T03:49:11;51660.88;;;-142.34;27.24
12951;BME280;6540;50.858;7.232;2023-07-13T03:51:37;51648.78;;;-142.34;27.28
12951;BME280;6540;50.858;7.232;2023-07-13T03:54:03;51616.50;;;-142.34;26.35
12951;BME280;6540;50.858;7.232;2023-07-13T03:56:28;51612.47;;;-142.34;26.39
12951;BME280;6540;50.858;7.232;2023-07-13T03:58:54;51596.34;;;-142.34;25.94
12951;BME280;6540;50.858;7.232;2023-07-13T04:01:21;51610.47;;;-142.34;25.85
12951;BME280;6540;50.858;7.232;2023-07-13T04:03:47;51612.47;;;-142.34;25.64
12951;BME280;6540;50.858;7.232;2023-07-13T04:06:25;51551.97;;;-142.34;25.80
12951;BME280;6540;50.858;7.232;2023-07-13T04:08:56;51588.28;;;-142.34;25.59
12951;BME280;6540;50.858;7.232;2023-07-13T04:11:24;51580.19;;;-142.34;26.10
12951;BME280;6540;50.858;7.232;2023-07-13T04:13:50;51650.81;;;-142.34;26.86
12951;BME280;6540;50.858;7.232;2023-07-13T04:16:17;51640.72;;;-142.34;27.26
12951;BME280;6540;50.858;7.232;2023-07-13T04:18:44;51632.66;;;-142.34;27.28
12951;BME280;6540;50.858;7.232;2023-07-13T04:21:09;51656.84;;;-142.34;27.47
12951;BME280;6540;50.858;7.232;2023-07-13T04:23:36;51626.59;;;-142.34;26.93
12951;BME280;6540;50.858;7.232;2023-07-13T04:26:02;51636.69;;;-142.34;27.30
12951;BME280;6540;50.858;7.232;2023-07-13T04:28:27;51622.56;;;-142.34;26.70
12951;BME280;6540;50.858;7.232;2023-07-13T04:30:53;51608.44;;;-142.34;27.01
12951;BME280;6540;50.858;7.232;2023-07-13T04:33:18;51600.38;;;-142.34;26.61
12951;BME280;6540;50.858;7.232;2023-07-13T04:35:50;51584.22;;;-142.34;26.17
12951;BME280;6540;50.858;7.232;2023-07-13T04:38:20;51580.19;;;-142.34;25.87
12951;BME280;6540;50.858;7.232;2023-07-13T04:40:45;51586.25;;;-142.34;25.92
12951;BME280;6540;50.858;7.232;2023-07-13T04:43:11;51590.28;;;-142.34;26.13
12951;BME280;6540;50.858;7.232;2023-07-13T04:45:36;51632.66;;;-142.34;26.80
12951;BME280;6540;50.858;7.232;2023-07-13T04:48:02;51612.47;;;-142.34;26.95
12951;BME280;6540;50.858;7.232;2023-07-13T04:50:27;51551.97;;;-142.34;26.46
12951;BME280;6540;50.858;7.232;2023-07-13T04:52:53;51513.63;;;-142.34;26.49
12951;BME280;6540;50.858;7.232;2023-07-13T04:55:19;51503.53;;;-142.34;26.00
12951;BME280;6540;50.858;7.232;2023-07-13T04:57:45;51495.47;;;-142.34;25.49
12951;BME280;6540;50.858;7.232;2023-07-13T05:00:12;51489.44;;;-142.34;25.66
12951;BME280;6540;50.858;7.232;2023-07-13T05:02:38;51475.31;;;-142.34;25.07
12951;BME280;6540;50.858;7.232;2023-07-13T05:05:05;51443.03;;;-142.34;24.67
12951;BME280;6540;50.858;7.232;2023-07-13T05:07:30;51479.34;;;-142.34;24.75
12951;BME280;6540;50.858;7.232;2023-07-13T05:09:58;51501.53;;;-142.34;25.00
12951;BME280;6540;50.858;7.232;2023-07-13T05:12:23;51515.66;;;-142.34;25.66
12951;BME280;6540;50.858;7.232;2023-07-13T05:14:49;51493.47;;;-142.34;25.56
12951;BME280;6540;50.858;7.232;2023-07-13T05:17:14;51479.34;;;-142.34;24.86
12951;BME280;6540;50.858;7.232;2023-07-13T05:19:40;51503.53;;;-142.34;25.11
12951;BME280;6540;50.858;7.232;2023-07-13T05:22:05;51459.16;;;-142.34;24.63
12951;BME280;6540;50.858;7.232;2023-07-13T05:24:30;51455.13;;;-142.34;24.78
12951;BME280;6540;50.858;7.232;2023-07-13T05:26:56;51535.81;;;-142.34;26.05
12951;BME280;6540;50.858;7.232;2023-07-13T05:29:24;51473.28;;;-142.34;25.66
12951;BME280;6540;50.858;7.232;2023-07-13T05:31:49;51481.34;;;-142.34;24.63
12951;BME280;6540;50.858;7.232;2023-07-13T05:34:15;51402.69;;;-142.34;24.09
12951;BME280;6540;50.858;7.232;2023-07-13T05:36:41;51418.84;;;-142.34;23.95
12951;BME280;6540;50.858;7.232;2023-07-13T05:39:06;51414.78;;;-142.34;23.62
12951;BME280;6540;50.858;7.232;2023-07-13T05:41:35;51449.09;;;-142.34;23.78
12951;BME280;6540;50.858;7.232;2023-07-13T05:44:01;51499.50;;;-142.34;24.44
12951;BME280;6540;50.858;7.232;2023-07-13T05:46:26;51491.44;;;-142.34;24.31
12951;BME280;6540;50.858;7.232;2023-07-13T05:48:51;51489.44;;;-142.34;23.75
12951;BME280;6540;50.858;7.232;2023-07-13T05:51:17;51547.94;;;-142.34;25.34
12951;BME280;6540;50.858;7.232;2023-07-13T05:53:42;51525.75;;;-142.34;25.20
12951;BME280;6540;50.858;7.232;2023-07-13T05:56:07;51598.34;;;-142.34;25.47
12951;BME280;6540;50.858;7.232;2023-07-13T05:58:33;51592.31;;;-142.34;25.16
12951;BME280;6540;50.858;7.232;2023-07-13T06:01:19;51489.44;;;-142.34;24.06
12951;BME280;6540;50.858;7.232;2023-07-13T06:03:46;51560.03;;;-142.34;25.66
12951;BME280;6540;50.858;7.232;2023-07-13T06:06:11;51545.91;;;-142.34;25.57
12951;BME280;6540;50.858;7.232;2023-07-13T06:08:37;51503.53;;;-142.34;24.51
12951;BME280;6540;50.858;7.232;2023-07-13T06:11:08;51505.56;;;-142.34;24.78
12951;BME280;6540;50.858;7.232;2023-07-13T06:13:35;51527.75;;;-142.34;25.10
12951;BME280;6540;50.858;7.232;2023-07-13T06:16:01;51479.34;;;-142.34;24.48
12951;BME280;6540;50.858;7.232;2023-07-13T06:18:29;51551.97;;;-142.34;25.39
12951;BME280;6540;50.858;7.232;2023-07-13T06:20:55;51572.13;;;-142.34;25.32
12951;BME280;6540;50.858;7.232;2023-07-13T06:23:20;51543.88;;;-142.34;25.64
12951;BME280;6540;50.858;7.232;2023-07-13T06:25:45;51487.41;;;-142.34;24.81
12951;BME280;6540;50.858;7.232;2023-07-13T06:28:11;51556.00;;;-142.34;25.63
12951;BME280;6540;50.858;7.232;2023-07-13T06:30:38;51529.78;;;-142.34;25.37
12951;BME280;6540;50.858;7.232;2023-07-13T06:33:04;51547.94;;;-142.34;25.97
12951;BME280;6540;50.858;7.232;2023-07-13T06:35:29;51439.00;;;-142.34;23.85
12951;BME280;6540;50.858;7.232;2023-07-13T06:37:55;51455.13;;;-142.34;24.01
12951;BME280;6540;50.858;7.232;2023-07-13T06:40:20;51489.44;;;-142.34;24.95
12951;BME280;6540;50.858;7.232;2023-07-13T06:42:45;51531.78;;;-142.34;25.13
12951;BME280;6540;50.858;7.232;2023-07-13T06:45:11;51501.53;;;-142.34;24.90
12951;BME280;6540;50.858;7.232;2023-07-13T06:47:36;51483.38;;;-142.34;24.68
12951;BME280;6540;50.858;7.232;2023-07-13T06:50:01;51410.75;;;-142.34;24.19
12951;BME280;6540;50.858;7.232;2023-07-13T06:52:27;51408.75;;;-142.34;23.85
12951;BME280;6540;50.858;7.232;2023-07-13T06:54:52;51402.69;;;-142.34;23.74
12951;BME280;6540;50.858;7.232;2023-07-13T06:57:17;51370.41;;;-142.34;24.25
12951;BME280;6540;50.858;7.232;2023-07-13T06:59:42;51370.41;;;-142.34;23.48
12951;BME280;6540;50.858;7.232;2023-07-13T07:02:10;51370.41;;;-142.34;23.87
12951;BME280;6540;50.858;7.232;2023-07-13T07:04:36;51388.56;;;-142.34;24.42
12951;BME280;6540;50.858;7.232;2023-07-13T07:07:01;51434.97;;;-142.34;24.49
12951;BME280;6540;50.858;7.232;2023-07-13T07:09:26;51348.22;;;-142.34;23.95
12951;BME280;6540;50.858;7.232;2023-07-13T07:11:52;51317.97;;;-142.34;23.70
12951;BME280;6540;50.858;7.232;2023-07-13T07:14:17;51382.53;;;-142.34;24.21
12951;BME280;6540;50.858;7.232;2023-07-13T07:16:43;51443.03;;;-142.34;24.18
12951;BME280;6540;50.858;7.232;2023-07-13T07:19:08;51354.28;;;-142.34;24.34
12951;BME280;6540;50.858;7.232;2023-07-13T07:21:33;51334.13;;;-142.34;24.02
12951;BME280;6540;50.858;7.232;2023-07-13T07:23:59;51261.50;;;-142.34;23.71
12951;BME280;6540;50.858;7.232;2023-07-13T07:26:25;51277.63;;;-142.34;23.39
12951;BME280;6540;50.858;7.232;2023-07-13T07:28:50;51362.34;;;-142.34;23.46
12951;BME280;6540;50.858;7.232;2023-07-13T07:31:16;51342.19;;;-142.34;23.46
12951;BME280;6540;50.858;7.232;2023-07-13T07:33:41;51346.22;;;-142.34;23.36
12951;BME280;6540;50.858;7.232;2023-07-13T07:36:06;51459.16;;;-142.34;24.48
12951;BME280;6540;50.858;7.232;2023-07-13T07:38:32;51441.03;;;-142.34;24.24
12951;BME280;6540;50.858;7.232;2023-07-13T07:40:57;51475.31;;;-142.34;24.12
12951;BME280;6540;50.858;7.232;2023-07-13T07:43:23;51479.34;;;-142.34;24.65
12951;BME280;6540;50.858;7.232;2023-07-13T07:45:48;51523.72;;;-142.34;25.29
12951;BME280;6540;50.858;7.232;2023-07-13T07:48:13;51533.81;;;-142.34;25.18
12951;BME280;6540;50.858;7.232;2023-07-13T07:50:39;51539.84;;;-142.34;25.53
12951;BME280;6540;50.858;7.232;2023-07-13T07:53:06;51523.72;;;-142.34;25.68
12951;BME280;6540;50.858;7.232;2023-07-13T07:55:33;51523.72;;;-142.34;25.19
12951;BME280;6540;50.858;7.232;2023-07-13T07:57:59;51531.78;;;-142.34;24.87
12951;BME280;6540;50.858;7.232;2023-07-13T08:00:24;51539.84;;;-142.34;25.28
12951;BME280;6540;50.858;7.232;2023-07-13T08:02:50;51479.34;;;-142.34;24.48
12951;BME280;6540;50.858;7.232;2023-07-13T08:05:15;51491.44;;;-142.34;24.87
12951;BME280;6540;50.858;7.232;2023-07-13T08:07:41;51515.66;;;-142.34;25.00
12951;BME280;6540;50.858;7.232;2023-07-13T08:10:07;51560.03;;;-142.34;25.75
12951;BME280;6540;50.858;7.232;2023-07-13T08:12:39;51467.25;;;-142.34;24.45
12951;BME280;6540;50.858;7.232;2023-07-13T08:15:09;51537.84;;;-142.34;26.15
12951;BME280;6540;50.858;7.232;2023-07-13T08:17:34;51531.78;;;-142.34;25.51
12951;BME280;6540;50.858;7.232;2023-07-13T08:20:00;51517.66;;;-142.34;25.05
12951;BME280;6540;50.858;7.232;2023-07-13T08:22:25;51535.81;;;-142.34;25.28
12951;BME280;6540;50.858;7.232;2023-07-13T08:24:50;51539.84;;;-142.34;25.58
12951;BME280;6540;50.858;7.232;2023-07-13T08:27:20;51483.38;;;-142.34;25.26
12951;BME280;6540;50.858;7.232;2023-07-13T08:29:48;51584.22;;;-142.34;26.46
12951;BME280;6540;50.858;7.232;2023-07-13T08:32:13;51493.47;;;-142.34;24.55
12951;BME280;6540;50.858;7.232;2023-07-13T08:34:39;51515.66;;;-142.34;24.90
12951;BME280;6540;50.858;7.232;2023-07-13T08:37:05;51533.81;;;-142.34;25.49
12951;BME280;6540;50.858;7.232;2023-07-13T08:39:31;51521.69;;;-142.34;25.90
12951;BME280;6540;50.858;7.232;2023-07-13T08:42:22;51547.94;;;-142.34;25.24
12951;BME280;6540;50.858;7.232;2023-07-13T08:45:03;51531.78;;;-142.34;24.73
12951;BME280;6540;50.858;7.232;2023-07-13T08:47:34;51507.59;;;-142.34;25.68
12951;BME280;6540;50.858;7.232;2023-07-13T08:50:02;51499.50;;;-142.34;24.69
12951;BME280;6540;50.858;7.232;2023-07-13T08:52:49;51398.66;;;-142.34;24.02
12951;BME280;6540;50.858;7.232;2023-07-13T08:55:18;51443.03;;;-142.34;24.28
12951;BME280;6540;50.858;7.232;2023-07-13T08:57:51;51493.47;;;-142.34;24.65
12951;BME280;6540;50.858;7.232;2023-07-13T09:00:18;51471.28;;;-142.34;24.16
12951;BME280;6540;50.858;7.232;2023-07-13T09:02:56;51434.97;;;-142.34;24.48
12951;BME280;6540;50.858;7.232;2023-07-13T09:05:28;51503.53;;;-142.34;24.46
12951;BME280;6540;50.858;7.232;2023-07-13T09:10:32;51539.84;;;-142.34;25.24
12951;BME280;6540;50.858;7.232;2023-07-13T09:15:53;51521.69;;;-142.34;25.01
12951;BME280;6540;50.858;7.232;2023-07-13T09:20:50;51491.44;;;-142.34;24.44
12951;BME280;6540;50.858;7.232;2023-07-13T09:23:21;51473.28;;;-142.34;24.40
12951;BME280;6540;50.858;7.232;2023-07-13T09:25:48;51491.44;;;-142.34;24.83
12951;BME280;6540;50.858;7.232;2023-07-13T09:28:22;51465.22;;;-142.34;24.51
12951;BME280;6540;50.858;7.232;2023-07-13T09:33:19;51475.31;;;-142.34;24.26
12951;BME280;6540;50.858;7.232;2023-07-13T09:35:44;51459.16;;;-142.34;24.19
12951;BME280;6540;50.858;7.232;2023-07-13T09:38:14;51503.53;;;-142.34;24.77
12951;BME280;6540;50.858;7.232;2023-07-13T09:43:15;51499.50;;;-142.34;24.78
12951;BME280;6540;50.858;7.232;2023-07-13T09:45:45;51499.50;;;-142.34;24.55
12951;BME280;6540;50.858;7.232;2023-07-13T09:48:13;51529.78;;;-142.34;25.03
12951;BME280;6540;50.858;7.232;2023-07-13T09:50:39;51487.41;;;-142.34;24.31
12951;BME280;6540;50.858;7.232;2023-07-13T09:53:18;51487.41;;;-142.34;24.62
12951;BME280;6540;50.858;7.232;2023-07-13T09:55:46;51479.34;;;-142.34;24.84
12951;BME280;6540;50.858;7.232;2023-07-13T10:00:40;51505.56;;;-142.34;24.84
12951;BME280;6540;50.858;7.232;2023-07-13T10:03:30;51449.09;;;-142.34;23.91
12951;BME280;6540;50.858;7.232;2023-07-13T10:06:10;51471.28;;;-142.34;24.71
12951;BME280;6540;50.858;7.232;2023-07-13T10:08:37;51483.38;;;-142.34;24.22
12951;BME280;6540;50.858;7.232;2023-07-13T10:11:24;51428.91;;;-142.34;23.93
12951;BME280;6540;50.858;7.232;2023-07-13T10:13:54;51439.00;;;-142.34;23.68
12951;BME280;6540;50.858;7.232;2023-07-13T10:16:21;51463.22;;;-142.34;24.18
12951;BME280;6540;50.858;7.232;2023-07-13T10:18:50;51406.72;;;-142.34;23.97
12951;BME280;6540;50.858;7.232;2023-07-13T10:21:18;51467.25;;;-142.34;23.76
12951;BME280;6540;50.858;7.232;2023-07-13T10:23:55;51507.59;;;-142.34;24.76
12951;BME280;6540;50.858;7.232;2023-07-13T10:26:31;51503.53;;;-142.34;25.27
12951;BME280;6540;50.858;7.232;2023-07-13T10:29:02;51501.53;;;-142.34;24.60
12951;BME280;6540;50.858;7.232;2023-07-13T10:31:30;51541.88;;;-142.34;25.44
12951;BME280;6540;50.858;7.232;2023-07-13T10:33:57;51483.38;;;-142.34;24.31
12951;BME280;6540;50.858;7.232;2023-07-13T10:36:31;51495.47;;;-142.34;24.33
12951;BME280;6540;50.858;7.232;2023-07-13T10:38:59;51511.63;;;-142.34;25.35
12951;BME280;6540;50.858;7.232;2023-07-13T10:41:27;51467.25;;;-142.34;24.36
12951;BME280;6540;50.858;7.232;2023-07-13T10:43:55;51463.22;;;-142.34;23.97
12951;BME280;6540;50.858;7.232;2023-07-13T10:46:25;51521.69;;;-142.34;24.82
12951;BME280;6540;50.858;7.232;2023-07-13T10:49:04;51434.97;;;-142.34;23.86
12951;BME280;6540;50.858;7.232;2023-07-13T10:51:31;51473.28;;;-142.34;24.17
12951;BME280;6540;50.858;7.232;2023-07-13T10:59:35;51394.63;;;-142.34;23.39
12951;BME280;6540;50.858;7.232;2023-07-13T11:04:29;51455.13;;;-142.34;24.31
12951;BME280;6540;50.858;7.232;2023-07-13T11:07:11;51449.09;;;-142.34;23.73
12951;BME280;6540;50.858;7.232;2023-07-13T11:09:39;51457.16;;;-142.34;24.16
12951;BME280;6540;50.858;7.232;2023-07-13T11:12:55;51422.88;;;-142.34;23.42
12951;BME280;6540;50.858;7.232;2023-07-13T11:17:50;51467.25;;;-142.34;23.98
12951;BME280;6540;50.858;7.232;2023-07-13T11:22:45;51422.88;;;-142.34;23.58
12951;BME280;6540;50.858;7.232;2023-07-13T11:25:30;51426.91;;;-142.34;22.95
12951;BME280;6540;50.858;7.232;2023-07-13T11:30:43;51434.97;;;-142.34;23.35
12951;BME280;6540;50.858;7.232;2023-07-13T11:36:05;51426.91;;;-142.34;23.49
12951;BME280;6540;50.858;7.232;2023-07-13T11:38:39;51483.38;;;-142.34;23.65
12951;BME280;6540;50.858;7.232;2023-07-13T11:41:15;51428.91;;;-142.34;23.53
12951;BME280;6540;50.858;7.232;2023-07-13T11:43:41;51495.47;;;-142.34;23.88
12951;BME280;6540;50.858;7.232;2023-07-13T11:46:24;51483.38;;;-142.34;23.90
12951;BME280;6540;50.858;7.232;2023-07-13T11:48:50;51539.84;;;-142.34;24.34
12951;BME280;6540;50.858;7.232;2023-07-13T11:51:23;51513.63;;;-142.34;23.89
12951;BME280;6540;50.858;7.232;2023-07-13T11:53:52;51449.09;;;-142.34;23.29
12951;BME280;6540;50.858;7.232;2023-07-13T11:56:18;51475.31;;;-142.34;23.95
12951;BME280;6540;50.858;7.232;2023-07-13T11:58:44;51479.34;;;-142.34;24.07
12951;BME280;6540;50.858;7.232;2023-07-13T12:01:18;51483.38;;;-142.34;23.95
12951;BME280;6540;50.858;7.232;2023-07-13T12:03:45;51475.31;;;-142.34;24.16
12951;BME280;6540;50.858;7.232;2023-07-13T12:06:29;51436.97;;;-142.34;23.50
12951;BME280;6540;50.858;7.232;2023-07-13T12:08:57;51447.06;;;-142.34;23.73
12951;BME280;6540;50.858;7.232;2023-07-13T12:11:23;51451.09;;;-142.34;23.82
12951;BME280;6540;50.858;7.232;2023-07-13T12:13:49;51517.66;;;-142.34;24.55
12951;BME280;6540;50.858;7.232;2023-07-13T12:16:20;51424.88;;;-142.34;23.48
12951;BME280;6540;50.858;7.232;2023-07-13T12:18:48;51424.88;;;-142.34;23.32
12951;BME280;6540;50.858;7.232;2023-07-13T12:21:17;51471.28;;;-142.34;23.95
12951;BME280;6540;50.858;7.232;2023-07-13T12:23:44;51434.97;;;-142.34;23.70
12951;BME280;6540;50.858;7.232;2023-07-13T12:26:12;51467.25;;;-142.34;24.02
12951;BME280;6540;50.858;7.232;2023-07-13T12:28:44;51479.34;;;-142.34;23.87
12951;BME280;6540;50.858;7.232;2023-07-13T12:31:43;51511.63;;;-142.34;24.40
12951;BME280;6540;50.858;7.232;2023-07-13T12:34:15;51511.63;;;-142.34;24.13
12951;BME280;6540;50.858;7.232;2023-07-13T12:37:02;51523.72;;;-142.34;24.34
12951;BME280;6540;50.858;7.232;2023-07-13T12:39:35;51457.16;;;-142.34;24.12
12951;BME280;6540;50.858;7.232;2023-07-13T12:44:49;51459.16;;;-142.34;23.87
12951;BME280;6540;50.858;7.232;2023-07-13T12:47:15;51535.81;;;-142.34;24.79
12951;BME280;6540;50.858;7.232;2023-07-13T12:49:56;51479.34;;;-142.34;24.16
12951;BME280;6540;50.858;7.232;2023-07-13T12:52:33;51416.81;;;-142.34;23.42
12951;BME280;6540;50.858;7.232;2023-07-13T12:55:06;51414.78;;;-142.34;23.26
12951;BME280;6540;50.858;7.232;2023-07-13T12:57:39;51461.19;;;-142.34;23.68
12951;BME280;6540;50.858;7.232;2023-07-13T13:00:21;51459.16;;;-142.34;23.64
12951;BME280;6540;50.858;7.232;2023-07-13T13:02:50;51487.41;;;-142.34;23.46
12951;BME280;6540;50.858;7.232;2023-07-13T13:05:16;51477.31;;;-142.34;23.77
12951;BME280;6540;50.858;7.232;2023-07-13T13:07:44;51447.06;;;-142.34;23.46
12951;BME280;6540;50.858;7.232;2023-07-13T13:10:13;51497.50;;;-142.34;24.20
12951;BME280;6540;50.858;7.232;2023-07-13T13:12:39;51509.59;;;-142.34;24.35
12951;BME280;6540;50.858;7.232;2023-07-13T13:15:08;51523.72;;;-142.34;24.41
12951;BME280;6540;50.858;7.232;2023-07-13T13:17:34;51479.34;;;-142.34;23.16
12951;BME280;6540;50.858;7.232;2023-07-13T13:19:59;51539.84;;;-142.34;24.22
12951;BME280;6540;50.858;7.232;2023-07-13T13:22:25;51457.16;;;-142.34;23.36
12951;BME280;6540;50.858;7.232;2023-07-13T13:24:50;51531.78;;;-142.34;23.69
12951;BME280;6540;50.858;7.232;2023-07-13T13:27:20;51467.25;;;-142.34;23.55
12951;BME280;6540;50.858;7.232;2023-07-13T13:29:48;51463.22;;;-142.34;23.83
12951;BME280;6540;50.858;7.232;2023-07-13T13:32:15;51457.16;;;-142.34;23.84
12951;BME280;6540;50.858;7.232;2023-07-13T13:34:41;51467.25;;;-142.34;23.55